sensor_id;sensor_type;location;lat;lon;timestamp;P1;durP1;ratioP1;P2;durP2;ratioP2
1503;SDS011;743;47.076;15.494;2023-02-04T00:01:58;291.35;;;125.47;;
1503;SDS011;743;47.076;15.494;2023-02-04T00:04:26;295.65;;;118.63;;
1503;SDS011;743;47.076;15.494;2023-02-04T00:06:54;285.35;;;116.90;;
1503;SDS011;743;47.076;15.494;2023-02-04T00:09:26;285.60;;;115.68;;
1503;SDS011;743;47.076;15.494;2023-02-04T00:11:54;295.75;;;117.75;;
1503;SDS011;743;47.076;15.494;2023-02-04T00:14:32;296.75;;;120.05;;
1503;SDS011;743;47.076;15.494;2023-02-04T00:16:59;309.13;;;123.68;;
1503;SDS011;743;47.076;15.494;2023-02-04T00:19:27;314.30;;;124.72;;
1503;SDS011;743;47.076;15.494;2023-02-04T00:21:56;311.10;;;122.30;;
1503;SDS011;743;47.076;15.494;2023-02-04T00:24:26;304.00;;;117.90;;
1503;SDS011;743;47.076;15.494;2023-02-04T00:26:53;291.10;;;112.35;;
1503;SDS011;743;47.076;15.494;2023-02-04T00:29:21;309.73;;;119.07;;
1503;SDS011;743;47.076;15.494;2023-02-04T00:31:56;316.42;;;122.40;;
1503;SDS011;743;47.076;15.494;2023-02-04T00:34:25;323.03;;;120.93;;
1503;SDS011;743;47.076;15.494;2023-02-04T00:36:55;327.42;;;120.07;;
1503;SDS011;743;47.076;15.494;2023-02-04T00:42:50;332.27;;;122.85;;
1503;SDS011;743;47.076;15.494;2023-02-04T00:48:13;313.75;;;118.80;;
1503;SDS011;743;47.076;15.494;2023-02-04T00:50:42;336.00;;;127.57;;
1503;SDS011;743;47.076;15.494;2023-02-04T00:53:14;351.48;;;129.45;;
1503;SDS011;743;47.076;15.494;2023-02-04T00:55:42;357.63;;;125.00;;
1503;SDS011;743;47.076;15.494;2023-02-04T00:58:10;351.17;;;137.45;;
1503;SDS011;743;47.076;15.494;2023-02-04T01:00:37;358.23;;;136.63;;
1503;SDS011;743;47.076;15.494;2023-02-04T01:03:04;338.42;;;130.43;;
1503;SDS011;743;47.076;15.494;2023-02-04T01:05:31;356.55;;;130.95;;
1503;SDS011;743;47.076;15.494;2023-02-04T01:08:00;317.85;;;116.32;;
1503;SDS011;743;47.076;15.494;2023-02-04T01:10:28;323.48;;;125.00;;
1503;SDS011;743;47.076;15.494;2023-02-04T01:12:57;329.25;;;130.32;;
1503;SDS011;743;47.076;15.494;2023-02-04T01:15:26;329.38;;;127.63;;
1503;SDS011;743;47.076;15.494;2023-02-04T01:17:53;338.88;;;125.03;;
1503;SDS011;743;47.076;15.494;2023-02-04T01:20:21;346.27;;;131.15;;
1503;SDS011;743;47.076;15.494;2023-02-04T01:22:48;329.58;;;129.70;;
1503;SDS011;743;47.076;15.494;2023-02-04T01:25:15;324.58;;;123.30;;
1503;SDS011;743;47.076;15.494;2023-02-04T01:27:43;360.30;;;133.63;;
1503;SDS011;743;47.076;15.494;2023-02-04T01:30:13;332.98;;;130.23;;
1503;SDS011;743;47.076;15.494;2023-02-04T01:32:41;331.02;;;130.32;;
1503;SDS011;743;47.076;15.494;2023-02-04T01:35:09;333.38;;;131.50;;
1503;SDS011;743;47.076;15.494;2023-02-04T01:37:38;333.65;;;133.02;;
1503;SDS011;743;47.076;15.494;2023-02-04T01:40:09;333.45;;;131.80;;
1503;SDS011;743;47.076;15.494;2023-02-04T01:42:37;325.75;;;126.22;;
1503;SDS011;743;47.076;15.494;2023-02-04T01:45:06;334.08;;;134.00;;
1503;SDS011;743;47.076;15.494;2023-02-04T01:47:40;321.80;;;125.30;;
1503;SDS011;743;47.076;15.494;2023-02-04T01:50:10;338.27;;;130.00;;
1503;SDS011;743;47.076;15.494;2023-02-04T01:52:40;339.98;;;132.77;;
1503;SDS011;743;47.076;15.494;2023-02-04T01:55:11;313.13;;;125.03;;
1503;SDS011;743;47.076;15.494;2023-02-04T01:57:42;317.35;;;126.65;;
1503;SDS011;743;47.076;15.494;2023-02-04T02:00:13;333.20;;;123.00;;
1503;SDS011;743;47.076;15.494;2023-02-04T02:02:46;339.88;;;128.23;;
1503;SDS011;743;47.076;15.494;2023-02-04T02:05:15;329.10;;;120.60;;
1503;SDS011;743;47.076;15.494;2023-02-04T02:07:45;328.13;;;121.90;;
1503;SDS011;743;47.076;15.494;2023-02-04T02:10:13;318.27;;;109.07;;
1503;SDS011;743;47.076;15.494;2023-02-04T02:12:43;339.63;;;125.13;;
1503;SDS011;743;47.076;15.494;2023-02-04T02:15:12;228.02;;;81.20;;
1503;SDS011;743;47.076;15.494;2023-02-04T02:17:40;231.88;;;85.80;;
1503;SDS011;743;47.076;15.494;2023-02-04T02:20:11;337.52;;;120.10;;
1503;SDS011;743;47.076;15.494;2023-02-04T02:22:41;322.35;;;112.18;;
1503;SDS011;743;47.076;15.494;2023-02-04T02:25:17;341.83;;;128.35;;
1503;SDS011;743;47.076;15.494;2023-02-04T02:27:47;327.30;;;111.28;;
1503;SDS011;743;47.076;15.494;2023-02-04T02:30:15;325.00;;;120.18;;
1503;SDS011;743;47.076;15.494;2023-02-04T02:32:44;329.42;;;122.93;;
1503;SDS011;743;47.076;15.494;2023-02-04T02:35:11;318.30;;;119.00;;
1503;SDS011;743;47.076;15.494;2023-02-04T02:37:41;305.42;;;119.70;;
1503;SDS011;743;47.076;15.494;2023-02-04T02:40:10;318.13;;;115.80;;
1503;SDS011;743;47.076;15.494;2023-02-04T02:42:40;306.98;;;121.05;;
1503;SDS011;743;47.076;15.494;2023-02-04T02:45:10;314.58;;;117.20;;
1503;SDS011;743;47.076;15.494;2023-02-04T02:47:46;323.60;;;120.97;;
1503;SDS011;743;47.076;15.494;2023-02-04T02:50:19;320.23;;;118.78;;
1503;SDS011;743;47.076;15.494;2023-02-04T02:52:51;318.48;;;116.18;;
1503;SDS011;743;47.076;15.494;2023-02-04T02:55:21;330.25;;;123.57;;
1503;SDS011;743;47.076;15.494;2023-02-04T02:57:52;317.55;;;111.22;;
1503;SDS011;743;47.076;15.494;2023-02-04T03:00:28;328.80;;;119.20;;
1503;SDS011;743;47.076;15.494;2023-02-04T03:02:57;346.63;;;122.43;;
1503;SDS011;743;47.076;15.494;2023-02-04T03:05:31;345.75;;;121.07;;
1503;SDS011;743;47.076;15.494;2023-02-04T03:08:04;344.45;;;117.55;;
1503;SDS011;743;47.076;15.494;2023-02-04T03:10:33;343.73;;;125.15;;
1503;SDS011;743;47.076;15.494;2023-02-04T03:13:06;341.00;;;119.95;;
1503;SDS011;743;47.076;15.494;2023-02-04T03:15:36;356.25;;;122.22;;
1503;SDS011;743;47.076;15.494;2023-02-04T03:18:04;338.15;;;121.65;;
1503;SDS011;743;47.076;15.494;2023-02-04T03:20:34;337.58;;;120.68;;
1503;SDS011;743;47.076;15.494;2023-02-04T03:23:02;348.40;;;125.28;;
1503;SDS011;743;47.076;15.494;2023-02-04T03:25:30;323.30;;;113.07;;
1503;SDS011;743;47.076;15.494;2023-02-04T03:27:58;311.48;;;114.97;;
1503;SDS011;743;47.076;15.494;2023-02-04T03:30:27;322.38;;;120.53;;
1503;SDS011;743;47.076;15.494;2023-02-04T03:32:55;322.20;;;116.88;;
1503;SDS011;743;47.076;15.494;2023-02-04T03:35:23;318.10;;;118.20;;
1503;SDS011;743;47.076;15.494;2023-02-04T03:37:51;316.60;;;114.43;;
1503;SDS011;743;47.076;15.494;2023-02-04T03:40:18;322.33;;;119.80;;
1503;SDS011;743;47.076;15.494;2023-02-04T03:45:18;316.15;;;113.43;;
1503;SDS011;743;47.076;15.494;2023-02-04T03:47:50;308.85;;;116.63;;
1503;SDS011;743;47.076;15.494;2023-02-04T03:50:21;325.17;;;117.30;;
1503;SDS011;743;47.076;15.494;2023-02-04T03:52:51;315.95;;;116.55;;
1503;SDS011;743;47.076;15.494;2023-02-04T03:55:18;313.42;;;113.13;;
1503;SDS011;743;47.076;15.494;2023-02-04T03:57:47;322.27;;;121.70;;
1503;SDS011;743;47.076;15.494;2023-02-04T04:00:14;335.92;;;119.10;;
1503;SDS011;743;47.076;15.494;2023-02-04T04:02:44;334.98;;;124.10;;
1503;SDS011;743;47.076;15.494;2023-02-04T04:05:14;335.02;;;118.95;;
1503;SDS011;743;47.076;15.494;2023-02-04T04:07:43;342.92;;;121.82;;
1503;SDS011;743;47.076;15.494;2023-02-04T04:10:12;336.10;;;117.45;;
1503;SDS011;743;47.076;15.494;2023-02-04T04:12:39;347.30;;;122.57;;
1503;SDS011;743;47.076;15.494;2023-02-04T04:15:08;233.10;;;85.40;;
1503;SDS011;743;47.076;15.494;2023-02-04T04:17:37;234.13;;;81.47;;
1503;SDS011;743;47.076;15.494;2023-02-04T04:20:06;361.58;;;122.50;;
1503;SDS011;743;47.076;15.494;2023-02-04T04:22:42;349.48;;;120.13;;
1503;SDS011;743;47.076;15.494;2023-02-04T04:25:13;362.38;;;127.70;;
1503;SDS011;743;47.076;15.494;2023-02-04T04:27:40;357.08;;;127.90;;
1503;SDS011;743;47.076;15.494;2023-02-04T04:30:08;343.17;;;114.75;;
1503;SDS011;743;47.076;15.494;2023-02-04T04:32:38;355.50;;;126.35;;
1503;SDS011;743;47.076;15.494;2023-02-04T04:35:11;355.67;;;125.15;;
1503;SDS011;743;47.076;15.494;2023-02-04T04:37:40;366.20;;;124.20;;
1503;SDS011;743;47.076;15.494;2023-02-04T04:40:11;402.15;;;164.73;;
1503;SDS011;743;47.076;15.494;2023-02-04T04:42:41;359.17;;;121.50;;
1503;SDS011;743;47.076;15.494;2023-02-04T04:45:11;363.00;;;117.30;;
1503;SDS011;743;47.076;15.494;2023-02-04T04:47:41;375.45;;;129.23;;
1503;SDS011;743;47.076;15.494;2023-02-04T04:50:13;367.23;;;124.45;;
1503;SDS011;743;47.076;15.494;2023-02-04T04:52:45;362.10;;;120.82;;
1503;SDS011;743;47.076;15.494;2023-02-04T04:55:15;392.23;;;128.95;;
1503;SDS011;743;47.076;15.494;2023-02-04T04:57:48;383.75;;;120.93;;
1503;SDS011;743;47.076;15.494;2023-02-04T05:00:22;399.15;;;132.73;;
1503;SDS011;743;47.076;15.494;2023-02-04T05:02:50;396.90;;;128.18;;
1503;SDS011;743;47.076;15.494;2023-02-04T05:05:18;379.63;;;126.05;;
1503;SDS011;743;47.076;15.494;2023-02-04T05:07:49;437.02;;;134.15;;
1503;SDS011;743;47.076;15.494;2023-02-04T05:10:19;489.15;;;137.75;;
1503;SDS011;743;47.076;15.494;2023-02-04T05:12:51;471.65;;;129.43;;
1503;SDS011;743;47.076;15.494;2023-02-04T05:15:18;485.80;;;142.25;;
1503;SDS011;743;47.076;15.494;2023-02-04T05:17:49;613.47;;;160.07;;
1503;SDS011;743;47.076;15.494;2023-02-04T05:20:25;425.88;;;137.55;;
1503;SDS011;743;47.076;15.494;2023-02-04T05:23:00;417.45;;;129.70;;
1503;SDS011;743;47.076;15.494;2023-02-04T05:25:28;393.38;;;126.13;;
1503;SDS011;743;47.076;15.494;2023-02-04T05:27:55;408.58;;;129.82;;
1503;SDS011;743;47.076;15.494;2023-02-04T05:30:23;391.25;;;125.88;;
1503;SDS011;743;47.076;15.494;2023-02-04T05:32:55;378.73;;;119.43;;
1503;SDS011;743;47.076;15.494;2023-02-04T05:35:24;349.67;;;119.75;;
1503;SDS011;743;47.076;15.494;2023-02-04T05:37:53;344.67;;;116.63;;
1503;SDS011;743;47.076;15.494;2023-02-04T05:40:25;345.20;;;116.15;;
1503;SDS011;743;47.076;15.494;2023-02-04T05:42:53;336.88;;;114.55;;
1503;SDS011;743;47.076;15.494;2023-02-04T05:45:21;330.15;;;110.18;;
1503;SDS011;743;47.076;15.494;2023-02-04T05:47:49;350.55;;;120.32;;
1503;SDS011;743;47.076;15.494;2023-02-04T05:50:18;334.92;;;113.50;;
1503;SDS011;743;47.076;15.494;2023-02-04T05:52:51;329.98;;;113.45;;
1503;SDS011;743;47.076;15.494;2023-02-04T05:55:20;331.77;;;114.95;;
1503;SDS011;743;47.076;15.494;2023-02-04T05:57:52;327.08;;;113.80;;
1503;SDS011;743;47.076;15.494;2023-02-04T06:00:21;329.23;;;116.13;;
1503;SDS011;743;47.076;15.494;2023-02-04T06:02:49;335.70;;;115.95;;
1503;SDS011;743;47.076;15.494;2023-02-04T06:07:47;236.53;;;79.33;;
1503;SDS011;743;47.076;15.494;2023-02-04T06:10:15;321.88;;;113.32;;
1503;SDS011;743;47.076;15.494;2023-02-04T06:12:45;324.42;;;115.93;;
1503;SDS011;743;47.076;15.494;2023-02-04T06:15:14;327.60;;;115.55;;
1503;SDS011;743;47.076;15.494;2023-02-04T06:17:42;328.65;;;116.90;;
1503;SDS011;743;47.076;15.494;2023-02-04T06:20:11;316.23;;;111.63;;
1503;SDS011;743;47.076;15.494;2023-02-04T06:22:42;327.60;;;114.88;;
1503;SDS011;743;47.076;15.494;2023-02-04T06:25:17;329.27;;;117.13;;
1503;SDS011;743;47.076;15.494;2023-02-04T06:27:48;330.38;;;120.93;;
1503;SDS011;743;47.076;15.494;2023-02-04T06:30:25;336.95;;;125.80;;
1503;SDS011;743;47.076;15.494;2023-02-04T06:32:57;335.42;;;122.03;;
1503;SDS011;743;47.076;15.494;2023-02-04T06:35:25;326.85;;;120.65;;
1503;SDS011;743;47.076;15.494;2023-02-04T06:37:56;320.30;;;115.57;;
1503;SDS011;743;47.076;15.494;2023-02-04T06:40:24;333.25;;;118.18;;
1503;SDS011;743;47.076;15.494;2023-02-04T06:42:54;331.13;;;118.63;;
1503;SDS011;743;47.076;15.494;2023-02-04T06:45:30;331.10;;;121.45;;
1503;SDS011;743;47.076;15.494;2023-02-04T06:47:58;321.25;;;114.95;;
1503;SDS011;743;47.076;15.494;2023-02-04T06:50:26;319.95;;;114.30;;
1503;SDS011;743;47.076;15.494;2023-02-04T06:52:57;329.90;;;116.10;;
1503;SDS011;743;47.076;15.494;2023-02-04T06:55:26;330.52;;;118.63;;
1503;SDS011;743;47.076;15.494;2023-02-04T06:57:54;331.30;;;118.95;;
1503;SDS011;743;47.076;15.494;2023-02-04T07:00:22;332.10;;;119.88;;
1503;SDS011;743;47.076;15.494;2023-02-04T07:05:21;318.17;;;108.40;;
1503;SDS011;743;47.076;15.494;2023-02-04T07:07:50;296.65;;;107.85;;
1503;SDS011;743;47.076;15.494;2023-02-04T07:10:18;304.05;;;104.38;;
1503;SDS011;743;47.076;15.494;2023-02-04T07:12:46;343.63;;;111.00;;
1503;SDS011;743;47.076;15.494;2023-02-04T07:15:17;410.35;;;125.05;;
1503;SDS011;743;47.076;15.494;2023-02-04T07:17:47;479.25;;;128.85;;
1503;SDS011;743;47.076;15.494;2023-02-04T07:20:16;553.20;;;127.43;;
1503;SDS011;743;47.076;15.494;2023-02-04T07:22:43;712.83;;;218.50;;
1503;SDS011;743;47.076;15.494;2023-02-04T07:25:15;377.83;;;142.93;;
1503;SDS011;743;47.076;15.494;2023-02-04T07:27:49;372.98;;;116.13;;
1503;SDS011;743;47.076;15.494;2023-02-04T07:30:20;393.80;;;114.55;;
1503;SDS011;743;47.076;15.494;2023-02-04T07:32:52;399.95;;;116.03;;
1503;SDS011;743;47.076;15.494;2023-02-04T07:35:23;733.13;;;279.67;;
1503;SDS011;743;47.076;15.494;2023-02-04T07:38:00;247.80;;;100.90;;
1503;SDS011;743;47.076;15.494;2023-02-04T07:40:28;332.63;;;131.55;;
1503;SDS011;743;47.076;15.494;2023-02-04T07:42:59;654.60;;;151.18;;
1503;SDS011;743;47.076;15.494;2023-02-04T07:45:26;437.33;;;96.55;;
1503;SDS011;743;47.076;15.494;2023-02-04T07:47:57;610.88;;;138.25;;
1503;SDS011;743;47.076;15.494;2023-02-04T07:50:24;627.45;;;146.07;;
1503;SDS011;743;47.076;15.494;2023-02-04T07:52:54;584.08;;;131.73;;
1503;SDS011;743;47.076;15.494;2023-02-04T07:55:24;620.72;;;145.40;;
1503;SDS011;743;47.076;15.494;2023-02-04T07:57:57;614.53;;;180.35;;
1503;SDS011;743;47.076;15.494;2023-02-04T08:00:25;693.50;;;168.27;;
1503;SDS011;743;47.076;15.494;2023-02-04T08:02:55;604.88;;;183.20;;
1503;SDS011;743;47.076;15.494;2023-02-04T08:05:24;432.45;;;140.48;;
1503;SDS011;743;47.076;15.494;2023-02-04T08:07:54;499.95;;;130.18;;
1503;SDS011;743;47.076;15.494;2023-02-04T08:10:24;285.08;;;109.15;;
1503;SDS011;743;47.076;15.494;2023-02-04T08:12:51;248.13;;;82.95;;
1503;SDS011;743;47.076;15.494;2023-02-04T08:15:20;512.33;;;176.20;;
1503;SDS011;743;47.076;15.494;2023-02-04T08:17:48;189.05;;;96.35;;
1503;SDS011;743;47.076;15.494;2023-02-04T08:20:19;177.48;;;94.15;;
1503;SDS011;743;47.076;15.494;2023-02-04T08:22:57;184.73;;;95.63;;
1503;SDS011;743;47.076;15.494;2023-02-04T08:25:27;188.40;;;91.22;;
1503;SDS011;743;47.076;15.494;2023-02-04T08:27:56;186.98;;;94.78;;
1503;SDS011;743;47.076;15.494;2023-02-04T08:30:27;204.30;;;99.80;;
1503;SDS011;743;47.076;15.494;2023-02-04T08:32:55;212.73;;;98.53;;
1503;SDS011;743;47.076;15.494;2023-02-04T08:35:25;168.40;;;73.67;;
1503;SDS011;743;47.076;15.494;2023-02-04T08:37:53;352.50;;;132.30;;
1503;SDS011;743;47.076;15.494;2023-02-04T08:40:20;369.35;;;113.35;;
1503;SDS011;743;47.076;15.494;2023-02-04T08:42:48;391.75;;;119.20;;
1503;SDS011;743;47.076;15.494;2023-02-04T08:45:17;575.40;;;142.55;;
1503;SDS011;743;47.076;15.494;2023-02-04T08:47:45;532.13;;;171.60;;
1503;SDS011;743;47.076;15.494;2023-02-04T08:50:16;667.50;;;182.15;;
1503;SDS011;743;47.076;15.494;2023-02-04T08:52:53;486.02;;;124.63;;
1503;SDS011;743;47.076;15.494;2023-02-04T08:55:25;484.58;;;131.43;;
1503;SDS011;743;47.076;15.494;2023-02-04T08:57:57;610.40;;;164.10;;
1503;SDS011;743;47.076;15.494;2023-02-04T09:00:28;439.05;;;106.35;;
1503;SDS011;743;47.076;15.494;2023-02-04T09:02:58;628.33;;;146.95;;
1503;SDS011;743;47.076;15.494;2023-02-04T09:05:27;734.90;;;159.35;;
1503;SDS011;743;47.076;15.494;2023-02-04T09:08:01;653.22;;;155.05;;
1503;SDS011;743;47.076;15.494;2023-02-04T09:10:32;662.42;;;170.68;;
1503;SDS011;743;47.076;15.494;2023-02-04T09:13:02;668.88;;;171.00;;
1503;SDS011;743;47.076;15.494;2023-02-04T09:15:30;669.95;;;177.88;;
1503;SDS011;743;47.076;15.494;2023-02-04T09:18:03;476.85;;;155.63;;
1503;SDS011;743;47.076;15.494;2023-02-04T09:20:39;651.80;;;178.93;;
1503;SDS011;743;47.076;15.494;2023-02-04T09:23:16;678.75;;;154.23;;
1503;SDS011;743;47.076;15.494;2023-02-04T09:25:58;663.33;;;198.63;;
1503;SDS011;743;47.076;15.494;2023-02-04T09:28:28;679.97;;;170.00;;
1503;SDS011;743;47.076;15.494;2023-02-04T09:30:58;672.42;;;186.23;;
1503;SDS011;743;47.076;15.494;2023-02-04T09:33:26;664.95;;;174.25;;
1503;SDS011;743;47.076;15.494;2023-02-04T09:35:54;620.57;;;193.83;;
1503;SDS011;743;47.076;15.494;2023-02-04T09:38:22;615.43;;;164.40;;
1503;SDS011;743;47.076;15.494;2023-02-04T09:40:52;620.83;;;159.45;;
1503;SDS011;743;47.076;15.494;2023-02-04T09:43:24;620.55;;;159.27;;
1503;SDS011;743;47.076;15.494;2023-02-04T09:45:56;625.95;;;145.05;;
1503;SDS011;743;47.076;15.494;2023-02-04T09:48:28;643.20;;;162.57;;
1503;SDS011;743;47.076;15.494;2023-02-04T09:51:00;649.75;;;157.07;;
1503;SDS011;743;47.076;15.494;2023-02-04T09:53:31;664.00;;;184.43;;
1503;SDS011;743;47.076;15.494;2023-02-04T09:56:02;649.95;;;156.57;;
1503;SDS011;743;47.076;15.494;2023-02-04T09:58:32;651.42;;;157.75;;
1503;SDS011;743;47.076;15.494;2023-02-04T10:01:05;654.22;;;152.05;;
1503;SDS011;743;47.076;15.494;2023-02-04T10:03:38;670.47;;;154.98;;
1503;SDS011;743;47.076;15.494;2023-02-04T10:06:12;609.07;;;155.30;;
1503;SDS011;743;47.076;15.494;2023-02-04T10:11:13;615.27;;;158.93;;
1503;SDS011;743;47.076;15.494;2023-02-04T10:13:45;596.07;;;163.83;;
1503;SDS011;743;47.076;15.494;2023-02-04T10:16:16;607.70;;;161.80;;
1503;SDS011;743;47.076;15.494;2023-02-04T10:18:47;556.40;;;142.17;;
1503;SDS011;743;47.076;15.494;2023-02-04T10:23:52;813.15;;;373.40;;
1503;SDS011;743;47.076;15.494;2023-02-04T10:26:22;684.08;;;204.40;;
1503;SDS011;743;47.076;15.494;2023-02-04T10:28:57;641.20;;;168.75;;
1503;SDS011;743;47.076;15.494;2023-02-04T10:31:31;711.13;;;179.65;;
1503;SDS011;743;47.076;15.494;2023-02-04T10:34:10;623.95;;;164.05;;
1503;SDS011;743;47.076;15.494;2023-02-04T10:36:43;735.17;;;160.57;;
1503;SDS011;743;47.076;15.494;2023-02-04T10:39:19;629.15;;;187.02;;
1503;SDS011;743;47.076;15.494;2023-02-04T10:41:49;617.13;;;154.02;;
1503;SDS011;743;47.076;15.494;2023-02-04T10:44:18;451.67;;;126.57;;
1503;SDS011;743;47.076;15.494;2023-02-04T10:46:58;721.70;;;164.02;;
1503;SDS011;743;47.076;15.494;2023-02-04T10:49:28;721.15;;;179.65;;
1503;SDS011;743;47.076;15.494;2023-02-04T10:51:57;511.58;;;134.02;;
1503;SDS011;743;47.076;15.494;2023-02-04T10:54:34;704.17;;;207.73;;
1503;SDS011;743;47.076;15.494;2023-02-04T10:57:07;719.33;;;181.88;;
1503;SDS011;743;47.076;15.494;2023-02-04T10:59:43;713.63;;;186.35;;
1503;SDS011;743;47.076;15.494;2023-02-04T11:02:32;688.47;;;201.70;;
1503;SDS011;743;47.076;15.494;2023-02-04T11:05:18;670.08;;;178.15;;
1503;SDS011;743;47.076;15.494;2023-02-04T11:07:48;634.58;;;200.95;;
1503;SDS011;743;47.076;15.494;2023-02-04T11:10:20;366.38;;;100.70;;
1503;SDS011;743;47.076;15.494;2023-02-04T11:13:01;504.67;;;155.85;;
1503;SDS011;743;47.076;15.494;2023-02-04T11:18:42;643.50;;;196.40;;
1503;SDS011;743;47.076;15.494;2023-02-04T11:21:26;649.65;;;148.25;;
1503;SDS011;743;47.076;15.494;2023-02-04T11:24:19;636.30;;;137.77;;
1503;SDS011;743;47.076;15.494;2023-02-04T11:27:04;638.97;;;143.68;;
1503;SDS011;743;47.076;15.494;2023-02-04T11:29:34;642.80;;;147.55;;
1503;SDS011;743;47.076;15.494;2023-02-04T11:32:05;644.50;;;150.60;;
1503;SDS011;743;47.076;15.494;2023-02-04T11:34:54;713.10;;;259.15;;
1503;SDS011;743;47.076;15.494;2023-02-04T11:37:51;654.08;;;187.40;;
1503;SDS011;743;47.076;15.494;2023-02-04T11:40:21;662.80;;;195.27;;
1503;SDS011;743;47.076;15.494;2023-02-04T11:43:07;655.25;;;167.27;;
1503;SDS011;743;47.076;15.494;2023-02-04T11:45:41;693.85;;;231.80;;
1503;SDS011;743;47.076;15.494;2023-02-04T11:48:15;696.88;;;206.05;;
1503;SDS011;743;47.076;15.494;2023-02-04T11:50:53;635.75;;;154.93;;
1503;SDS011;743;47.076;15.494;2023-02-04T11:53:28;643.67;;;161.10;;
1503;SDS011;743;47.076;15.494;2023-02-04T11:55:59;681.88;;;180.23;;
1503;SDS011;743;47.076;15.494;2023-02-04T11:58:39;641.90;;;235.73;;
1503;SDS011;743;47.076;15.494;2023-02-04T12:01:15;623.07;;;221.70;;
1503;SDS011;743;47.076;15.494;2023-02-04T12:03:46;620.97;;;210.32;;
1503;SDS011;743;47.076;15.494;2023-02-04T12:06:26;645.03;;;214.40;;
1503;SDS011;743;47.076;15.494;2023-02-04T12:09:30;710.50;;;284.70;;
1503;SDS011;743;47.076;15.494;2023-02-04T12:11:59;676.87;;;198.07;;
1503;SDS011;743;47.076;15.494;2023-02-04T12:14:32;688.58;;;180.35;;
1503;SDS011;743;47.076;15.494;2023-02-04T12:17:14;685.08;;;177.10;;
1503;SDS011;743;47.076;15.494;2023-02-04T12:19:43;684.25;;;221.63;;
1503;SDS011;743;47.076;15.494;2023-02-04T12:22:13;719.13;;;198.32;;
1503;SDS011;743;47.076;15.494;2023-02-04T12:24:48;649.53;;;173.40;;
1503;SDS011;743;47.076;15.494;2023-02-04T12:27:26;675.50;;;247.40;;
1503;SDS011;743;47.076;15.494;2023-02-04T12:32:28;725.83;;;206.63;;
1503;SDS011;743;47.076;15.494;2023-02-04T12:34:56;628.92;;;192.00;;
1503;SDS011;743;47.076;15.494;2023-02-04T12:37:31;665.67;;;213.13;;
1503;SDS011;743;47.076;15.494;2023-02-04T12:40:01;648.13;;;192.48;;
1503;SDS011;743;47.076;15.494;2023-02-04T12:42:36;612.42;;;186.88;;
1503;SDS011;743;47.076;15.494;2023-02-04T12:45:10;653.80;;;183.18;;
1503;SDS011;743;47.076;15.494;2023-02-04T12:47:43;621.95;;;189.75;;
1503;SDS011;743;47.076;15.494;2023-02-04T12:50:14;639.88;;;210.18;;
1503;SDS011;743;47.076;15.494;2023-02-04T12:52:47;721.45;;;296.05;;
1503;SDS011;743;47.076;15.494;2023-02-04T12:55:15;695.40;;;194.45;;
1503;SDS011;743;47.076;15.494;2023-02-04T12:57:44;670.42;;;215.00;;
1503;SDS011;743;47.076;15.494;2023-02-04T13:00:19;444.67;;;163.43;;
1503;SDS011;743;47.076;15.494;2023-02-04T13:02:49;621.35;;;175.73;;
1503;SDS011;743;47.076;15.494;2023-02-04T13:05:23;645.53;;;196.57;;
1503;SDS011;743;47.076;15.494;2023-02-04T13:07:52;476.55;;;144.43;;
1503;SDS011;743;47.076;15.494;2023-02-04T13:10:20;633.90;;;179.20;;
1503;SDS011;743;47.076;15.494;2023-02-04T13:12:53;633.42;;;186.07;;
1503;SDS011;743;47.076;15.494;2023-02-04T13:15:23;642.33;;;196.95;;
1503;SDS011;743;47.076;15.494;2023-02-04T13:20:23;629.65;;;162.88;;
1503;SDS011;743;47.076;15.494;2023-02-04T13:22:55;624.83;;;185.77;;
1503;SDS011;743;47.076;15.494;2023-02-04T13:25:25;635.17;;;186.40;;
1503;SDS011;743;47.076;15.494;2023-02-04T13:27:53;608.77;;;170.07;;
1503;SDS011;743;47.076;15.494;2023-02-04T13:30:22;615.87;;;205.73;;
1503;SDS011;743;47.076;15.494;2023-02-04T13:32:53;645.83;;;230.77;;
1503;SDS011;743;47.076;15.494;2023-02-04T13:35:24;661.00;;;229.17;;
1503;SDS011;743;47.076;15.494;2023-02-04T13:37:59;655.33;;;213.03;;
1503;SDS011;743;47.076;15.494;2023-02-04T13:40:27;651.30;;;219.20;;
1503;SDS011;743;47.076;15.494;2023-02-04T13:42:56;466.35;;;150.05;;
1503;SDS011;743;47.076;15.494;2023-02-04T13:45:26;645.00;;;198.73;;
1503;SDS011;743;47.076;15.494;2023-02-04T13:47:57;624.20;;;190.43;;
1503;SDS011;743;47.076;15.494;2023-02-04T13:50:25;607.30;;;190.17;;
1503;SDS011;743;47.076;15.494;2023-02-04T13:52:52;719.65;;;246.13;;
1503;SDS011;743;47.076;15.494;2023-02-04T13:55:21;715.13;;;194.65;;
1503;SDS011;743;47.076;15.494;2023-02-04T13:57:52;696.97;;;216.50;;
1503;SDS011;743;47.076;15.494;2023-02-04T14:00:33;718.10;;;243.70;;
1503;SDS011;743;47.076;15.494;2023-02-04T14:03:05;631.15;;;172.07;;
1503;SDS011;743;47.076;15.494;2023-02-04T14:05:38;653.20;;;208.55;;
1503;SDS011;743;47.076;15.494;2023-02-04T14:08:16;652.80;;;187.67;;
1503;SDS011;743;47.076;15.494;2023-02-04T14:10:44;658.87;;;209.03;;
1503;SDS011;743;47.076;15.494;2023-02-04T14:13:14;616.23;;;180.90;;
1503;SDS011;743;47.076;15.494;2023-02-04T14:15:54;520.13;;;138.97;;
1503;SDS011;743;47.076;15.494;2023-02-04T14:20:54;698.60;;;175.43;;
1503;SDS011;743;47.076;15.494;2023-02-04T14:23:22;674.17;;;218.37;;
1503;SDS011;743;47.076;15.494;2023-02-04T14:25:52;654.40;;;181.63;;
1503;SDS011;743;47.076;15.494;2023-02-04T14:28:22;641.33;;;159.00;;
1503;SDS011;743;47.076;15.494;2023-02-04T14:30:54;636.23;;;233.47;;
1503;SDS011;743;47.076;15.494;2023-02-04T14:33:22;660.00;;;181.73;;
1503;SDS011;743;47.076;15.494;2023-02-04T14:35:53;635.30;;;166.10;;
1503;SDS011;743;47.076;15.494;2023-02-04T14:38:24;596.37;;;155.67;;
1503;SDS011;743;47.076;15.494;2023-02-04T14:40:56;668.27;;;194.47;;
1503;SDS011;743;47.076;15.494;2023-02-04T14:43:24;645.13;;;171.03;;
1503;SDS011;743;47.076;15.494;2023-02-04T14:45:57;640.33;;;180.83;;
1503;SDS011;743;47.076;15.494;2023-02-04T14:48:36;580.53;;;154.30;;
1503;SDS011;743;47.076;15.494;2023-02-04T14:51:12;627.03;;;169.97;;
1503;SDS011;743;47.076;15.494;2023-02-04T14:53:40;664.43;;;205.40;;
1503;SDS011;743;47.076;15.494;2023-02-04T14:56:08;656.43;;;185.27;;
1503;SDS011;743;47.076;15.494;2023-02-04T14:58:40;650.87;;;210.70;;
1503;SDS011;743;47.076;15.494;2023-02-04T15:04:11;627.63;;;168.47;;
1503;SDS011;743;47.076;15.494;2023-02-04T15:06:44;552.93;;;147.17;;
1503;SDS011;743;47.076;15.494;2023-02-04T15:09:15;572.97;;;142.60;;
1503;SDS011;743;47.076;15.494;2023-02-04T15:11:43;583.27;;;141.60;;
1503;SDS011;743;47.076;15.494;2023-02-04T15:14:11;622.27;;;166.40;;
1503;SDS011;743;47.076;15.494;2023-02-04T15:16:43;583.70;;;155.17;;